sensor_id;sensor_type;location;lat;lon;timestamp;pressure;altitude;pressure_sealevel;temperature;humidity
11049;BME280;5577;42.706;23.160;2023-01-05T00:02:04;94964.97;;;5.67;100.00
11049;BME280;5577;42.706;23.160;2023-01-05T00:04:48;94965.81;;;5.76;100.00
11049;BME280;5577;42.706;23.160;2023-01-05T00:07:32;94961.53;;;5.80;100.00
11049;BME280;5577;42.706;23.160;2023-01-05T00:10:16;94955.63;;;5.88;100.00
11049;BME280;5577;42.706;23.160;2023-01-05T00:13:32;94958.00;;;5.98;100.00
11049;BME280;5577;42.706;23.160;2023-01-05T00:16:35;94956.66;;;6.01;100.00
11049;BME280;5577;42.706;23.160;2023-01-05T00:19:38;94948.66;;;6.06;100.00
11049;BME280;5577;42.706;23.160;2023-01-05T00:25:30;94945.59;;;6.13;100.00
11049;BME280;5577;42.706;23.160;2023-01-05T00:28:14;94941.13;;;6.13;100.00
11049;BME280;5577;42.706;23.160;2023-01-05T00:30:58;94935.75;;;6.18;100.00
11049;BME280;5577;42.706;23.160;2023-01-05T00:33:42;94952.91;;;6.16;100.00
11049;BME280;5577;42.706;23.160;2023-01-05T00:36:26;94985.47;;;6.28;100.00
11049;BME280;5577;42.706;23.160;2023-01-05T00:39:10;94936.28;;;6.29;100.00
11049;BME280;5577;42.706;23.160;2023-01-05T00:41:54;94932.72;;;6.25;100.00
11049;BME280;5577;42.706;23.160;2023-01-05T00:44:38;94935.94;;;6.22;100.00
11049;BME280;5577;42.706;23.160;2023-01-05T00:47:22;94941.25;;;6.30;100.00
11049;BME280;5577;42.706;23.160;2023-01-05T00:50:07;94932.78;;;6.33;100.00
11049;BME280;5577;42.706;23.160;2023-01-05T00:52:51;94930.31;;;6.37;100.00
11049;BME280;5577;42.706;23.160;2023-01-05T00:55:35;94932.47;;;6.35;100.00
11049;BME280;5577;42.706;23.160;2023-01-05T00:58:19;94941.72;;;6.32;100.00
11049;BME280;5577;42.706;23.160;2023-01-05T01:01:10;94926.94;;;6.36;100.00
11049;BME280;5577;42.706;23.160;2023-01-05T01:03:55;94935.94;;;6.44;100.00
11049;BME280;5577;42.706;23.160;2023-01-05T01:06:39;94933.50;;;6.47;100.00
11049;BME280;5577;42.706;23.160;2023-01-05T01:09:23;94928.63;;;6.41;100.00
11049;BME280;5577;42.706;23.160;2023-01-05T01:12:07;94935.63;;;6.45;100.00
11049;BME280;5577;42.706;23.160;2023-01-05T01:14:51;94922.03;;;6.43;100.00
11049;BME280;5577;42.706;23.160;2023-01-05T01:17:35;94927.88;;;6.40;100.00
11049;BME280;5577;42.706;23.160;2023-01-05T01:20:19;94923.50;;;6.36;100.00
11049;BME280;5577;42.706;23.160;2023-01-05T01:23:03;94922.91;;;6.39;100.00
11049;BME280;5577;42.706;23.160;2023-01-05T01:25:47;94910.41;;;6.44;100.00
11049;BME280;5577;42.706;23.160;2023-01-05T01:28:31;94904.38;;;6.44;100.00
11049;BME280;5577;42.706;23.160;2023-01-05T01:31:15;94899.28;;;6.47;100.00
11049;BME280;5577;42.706;23.160;2023-01-05T01:33:59;94892.47;;;6.46;100.00
11049;BME280;5577;42.706;23.160;2023-01-05T01:36:44;94885.66;;;6.45;100.00
11049;BME280;5577;42.706;23.160;2023-01-05T01:39:28;94879.16;;;6.43;100.00
11049;BME280;5577;42.706;23.160;2023-01-05T01:42:15;94887.38;;;6.50;100.00
11049;BME280;5577;42.706;23.160;2023-01-05T01:45:03;94882.91;;;6.50;100.00
11049;BME280;5577;42.706;23.160;2023-01-05T01:47:57;94867.75;;;6.47;100.00
11049;BME280;5577;42.706;23.160;2023-01-05T01:50:49;94864.50;;;6.50;100.00
11049;BME280;5577;42.706;23.160;2023-01-05T01:53:37;94817.69;;;6.30;100.00
11049;BME280;5577;42.706;23.160;2023-01-05T01:56:23;94857.72;;;6.58;100.00
11049;BME280;5577;42.706;23.160;2023-01-05T01:59:09;94856.28;;;6.52;100.00
11049;BME280;5577;42.706;23.160;2023-01-05T02:01:57;94857.72;;;6.58;100.00
11049;BME280;5577;42.706;23.160;2023-01-05T02:04:43;94847.97;;;6.58;100.00
11049;BME280;5577;42.706;23.160;2023-01-05T02:07:32;94847.22;;;6.66;100.00
11049;BME280;5577;42.706;23.160;2023-01-05T02:10:18;94846.44;;;6.66;100.00
11049;BME280;5577;42.706;23.160;2023-01-05T02:32:28;94840.13;;;6.67;100.00
11049;BME280;5577;42.706;23.160;2023-01-05T02:35:34;94839.34;;;6.66;100.00
11049;BME280;5577;42.706;23.160;2023-01-05T02:41:32;94834.22;;;6.61;100.00
11049;BME280;5577;42.706;23.160;2023-01-05T02:44:18;94824.25;;;6.50;100.00
11049;BME280;5577;42.706;23.160;2023-01-05T02:47:07;94815.28;;;6.51;100.00
11049;BME280;5577;42.706;23.160;2023-01-05T02:50:21;94819.03;;;6.58;100.00
11049;BME280;5577;42.706;23.160;2023-01-05T02:56:17;94815.81;;;6.61;100.00
11049;BME280;5577;42.706;23.160;2023-01-05T02:59:11;94816.13;;;6.60;100.00
11049;BME280;5577;42.706;23.160;2023-01-05T03:02:28;94813.66;;;6.72;100.00
11049;BME280;5577;42.706;23.160;2023-01-05T03:05:16;94801.72;;;6.66;100.00
11049;BME280;5577;42.706;23.160;2023-01-05T03:08:03;94785.28;;;6.52;100.00
11049;BME280;5577;42.706;23.160;2023-01-05T03:14:15;94784.53;;;6.60;100.00
11049;BME280;5577;42.706;23.160;2023-01-05T03:17:06;94776.16;;;6.58;100.00
11049;BME280;5577;42.706;23.160;2023-01-05T03:19:51;94768.88;;;6.55;100.00
11049;BME280;5577;42.706;23.160;2023-01-05T03:22:37;94764.22;;;6.43;100.00
11049;BME280;5577;42.706;23.160;2023-01-05T03:25:42;94765.59;;;6.41;100.00
11049;BME280;5577;42.706;23.160;2023-01-05T03:28:49;94762.84;;;6.46;100.00
11049;BME280;5577;42.706;23.160;2023-01-05T03:32:19;94762.53;;;6.47;100.00
11049;BME280;5577;42.706;23.160;2023-01-05T03:35:24;94754.16;;;6.45;100.00
11049;BME280;5577;42.706;23.160;2023-01-05T03:38:35;94760.31;;;6.41;100.00
11049;BME280;5577;42.706;23.160;2023-01-05T03:41:23;94758.31;;;6.46;100.00
11049;BME280;5577;42.706;23.160;2023-01-05T03:44:08;94730.72;;;6.27;100.00
11049;BME280;5577;42.706;23.160;2023-01-05T03:46:53;94763.00;;;6.49;100.00
11049;BME280;5577;42.706;23.160;2023-01-05T03:49:37;94753.72;;;6.43;100.00
11049;BME280;5577;42.706;23.160;2023-01-05T03:52:21;94755.69;;;6.38;100.00
11049;BME280;5577;42.706;23.160;2023-01-05T03:58:27;94755.03;;;6.32;100.00
11049;BME280;5577;42.706;23.160;2023-01-05T04:01:11;94752.09;;;6.34;100.00
11049;BME280;5577;42.706;23.160;2023-01-05T04:03:55;94750.25;;;6.34;100.00
11049;BME280;5577;42.706;23.160;2023-01-05T04:06:39;94744.19;;;6.25;100.00
11049;BME280;5577;42.706;23.160;2023-01-05T04:09:23;94749.75;;;6.24;100.00
11049;BME280;5577;42.706;23.160;2023-01-05T04:12:07;94741.09;;;6.23;100.00
11049;BME280;5577;42.706;23.160;2023-01-05T04:14:51;94730.53;;;6.15;100.00
11049;BME280;5577;42.706;23.160;2023-01-05T04:17:35;94734.38;;;6.09;100.00
11049;BME280;5577;42.706;23.160;2023-01-05T04:20:19;94733.91;;;6.07;100.00
11049;BME280;5577;42.706;23.160;2023-01-05T04:23:04;94734.97;;;6.06;100.00
11049;BME280;5577;42.706;23.160;2023-01-05T04:25:47;94723.50;;;6.02;100.00
11049;BME280;5577;42.706;23.160;2023-01-05T04:28:32;94725.78;;;5.94;100.00
11049;BME280;5577;42.706;23.160;2023-01-05T04:31:16;94731.84;;;5.95;100.00
11049;BME280;5577;42.706;23.160;2023-01-05T04:34:00;94726.09;;;5.93;100.00
11049;BME280;5577;42.706;23.160;2023-01-05T04:36:44;94727.44;;;5.82;100.00
11049;BME280;5577;42.706;23.160;2023-01-05T04:39:30;94739.53;;;5.69;100.00
11049;BME280;5577;42.706;23.160;2023-01-05T04:42:14;94739.69;;;5.64;100.00
11049;BME280;5577;42.706;23.160;2023-01-05T04:44:58;94743.63;;;5.53;100.00
11049;BME280;5577;42.706;23.160;2023-01-05T04:47:43;94744.91;;;5.42;100.00
11049;BME280;5577;42.706;23.160;2023-01-05T04:50:27;94737.81;;;5.43;100.00
11049;BME280;5577;42.706;23.160;2023-01-05T04:53:12;94734.75;;;5.49;100.00
11049;BME280;5577;42.706;23.160;2023-01-05T04:55:56;94741.69;;;5.45;100.00
11049;BME280;5577;42.706;23.160;2023-01-05T04:58:40;94743.38;;;5.41;100.00
11049;BME280;5577;42.706;23.160;2023-01-05T05:01:23;94750.88;;;5.34;100.00
11049;BME280;5577;42.706;23.160;2023-01-05T05:04:07;94747.47;;;5.34;100.00
11049;BME280;5577;42.706;23.160;2023-01-05T05:06:51;94753.72;;;5.38;100.00
11049;BME280;5577;42.706;23.160;2023-01-05T05:09:35;94757.28;;;5.42;100.00
11049;BME280;5577;42.706;23.160;2023-01-05T05:12:19;94751.00;;;5.51;100.00
11049;BME280;5577;42.706;23.160;2023-01-05T05:15:04;94751.97;;;5.55;100.00
11049;BME280;5577;42.706;23.160;2023-01-05T05:17:48;94757.28;;;5.64;100.00
11049;BME280;5577;42.706;23.160;2023-01-05T05:20:32;94757.13;;;5.69;100.00
11049;BME280;5577;42.706;23.160;2023-01-05T05:23:16;94755.13;;;5.66;100.00
11049;BME280;5577;42.706;23.160;2023-01-05T05:26:01;94752.81;;;5.64;100.00
11049;BME280;5577;42.706;23.160;2023-01-05T05:28:45;94751.44;;;5.67;100.00
11049;BME280;5577;42.706;23.160;2023-01-05T05:31:29;94741.81;;;5.62;100.00
11049;BME280;5577;42.706;23.160;2023-01-05T05:34:13;94740.97;;;5.75;100.00
11049;BME280;5577;42.706;23.160;2023-01-05T05:36:57;94735.66;;;5.67;100.00
11049;BME280;5577;42.706;23.160;2023-01-05T05:39:40;94737.84;;;5.73;100.00
11049;BME280;5577;42.706;23.160;2023-01-05T05:42:24;94731.22;;;5.76;100.00
11049;BME280;5577;42.706;23.160;2023-01-05T05:45:09;94722.59;;;5.75;100.00
11049;BME280;5577;42.706;23.160;2023-01-05T05:47:52;94714.16;;;5.65;100.00
11049;BME280;5577;42.706;23.160;2023-01-05T05:50:36;94720.00;;;5.53;100.00
11049;BME280;5577;42.706;23.160;2023-01-05T05:53:21;94708.09;;;5.56;100.00
11049;BME280;5577;42.706;23.160;2023-01-05T05:56:05;94711.38;;;5.61;100.00
11049;BME280;5577;42.706;23.160;2023-01-05T05:58:49;94707.50;;;5.59;100.00
11049;BME280;5577;42.706;23.160;2023-01-05T06:01:33;94712.47;;;5.60;100.00
11049;BME280;5577;42.706;23.160;2023-01-05T06:04:17;94710.72;;;5.56;100.00
11049;BME280;5577;42.706;23.160;2023-01-05T06:07:01;94711.03;;;5.54;100.00
11049;BME280;5577;42.706;23.160;2023-01-05T06:09:45;94702.66;;;5.52;100.00
11049;BME280;5577;42.706;23.160;2023-01-05T06:12:29;94706.06;;;5.53;100.00
11049;BME280;5577;42.706;23.160;2023-01-05T06:15:13;94696.94;;;5.50;100.00
11049;BME280;5577;42.706;23.160;2023-01-05T06:17:57;94694.44;;;5.45;100.00
11049;BME280;5577;42.706;23.160;2023-01-05T06:20:41;94696.75;;;5.47;100.00
11049;BME280;5577;42.706;23.160;2023-01-05T06:23:25;94694.91;;;5.47;100.00
11049;BME280;5577;42.706;23.160;2023-01-05T06:26:09;94683.53;;;5.52;100.00
11049;BME280;5577;42.706;23.160;2023-01-05T06:28:53;94682.31;;;5.58;100.00
11049;BME280;5577;42.706;23.160;2023-01-05T06:31:37;94681.09;;;5.64;100.00
11049;BME280;5577;42.706;23.160;2023-01-05T06:34:21;94686.41;;;5.72;100.00
11049;BME280;5577;42.706;23.160;2023-01-05T06:37:05;94675.84;;;5.86;100.00
11049;BME280;5577;42.706;23.160;2023-01-05T06:39:49;94687.94;;;5.96;100.00
11049;BME280;5577;42.706;23.160;2023-01-05T06:42:33;94689.03;;;6.03;100.00
11049;BME280;5577;42.706;23.160;2023-01-05T06:45:17;94690.81;;;6.16;100.00
11049;BME280;5577;42.706;23.160;2023-01-05T06:48:01;94689.94;;;6.29;100.00
11049;BME280;5577;42.706;23.160;2023-01-05T06:50:45;94674.00;;;6.34;100.00
11049;BME280;5577;42.706;23.160;2023-01-05T06:53:29;94678.66;;;6.37;100.00
11049;BME280;5577;42.706;23.160;2023-01-05T06:56:13;94655.59;;;6.34;100.00
11049;BME280;5577;42.706;23.160;2023-01-05T06:58:57;94674.84;;;6.69;100.00
11049;BME280;5577;42.706;23.160;2023-01-05T07:01:40;94663.09;;;6.92;100.00
11049;BME280;5577;42.706;23.160;2023-01-05T07:04:24;94647.75;;;7.02;100.00
11049;BME280;5577;42.706;23.160;2023-01-05T07:07:13;94650.69;;;7.18;100.00
11049;BME280;5577;42.706;23.160;2023-01-05T07:09:57;94659.66;;;7.42;100.00
11049;BME280;5577;42.706;23.160;2023-01-05T07:12:48;94659.16;;;7.57;100.00
11049;BME280;5577;42.706;23.160;2023-01-05T07:15:31;94657.28;;;7.75;100.00
11049;BME280;5577;42.706;23.160;2023-01-05T07:18:15;94657.84;;;7.89;100.00
11049;BME280;5577;42.706;23.160;2023-01-05T07:20:59;94657.47;;;7.99;100.00
11049;BME280;5577;42.706;23.160;2023-01-05T07:23:43;94639.75;;;8.08;100.00
11049;BME280;5577;42.706;23.160;2023-01-05T07:26:27;94654.91;;;8.19;100.00
11049;BME280;5577;42.706;23.160;2023-01-05T07:29:11;94635.03;;;8.30;100.00
11049;BME280;5577;42.706;23.160;2023-01-05T07:31:55;94626.59;;;8.37;100.00
11049;BME280;5577;42.706;23.160;2023-01-05T07:34:39;94636.25;;;8.33;100.00
11049;BME280;5577;42.706;23.160;2023-01-05T07:37:23;94573.16;;;8.19;100.00
11049;BME280;5577;42.706;23.160;2023-01-05T07:40:08;94627.75;;;8.77;100.00
11049;BME280;5577;42.706;23.160;2023-01-05T07:42:53;94625.31;;;8.93;100.00
11049;BME280;5577;42.706;23.160;2023-01-05T07:45:37;94625.72;;;9.15;100.00
11049;BME280;5577;42.706;23.160;2023-01-05T07:48:22;94620.84;;;9.05;100.00
11049;BME280;5577;42.706;23.160;2023-01-05T07:51:06;94610.72;;;9.07;100.00
11049;BME280;5577;42.706;23.160;2023-01-05T07:53:50;94623.53;;;9.50;100.00
11049;BME280;5577;42.706;23.160;2023-01-05T07:56:34;94617.22;;;9.87;100.00
11049;BME280;5577;42.706;23.160;2023-01-05T07:59:18;94613.13;;;9.77;100.00
11049;BME280;5577;42.706;23.160;2023-01-05T08:02:02;94609.94;;;9.72;100.00
11049;BME280;5577;42.706;23.160;2023-01-05T08:04:46;94605.06;;;9.62;100.00
11049;BME280;5577;42.706;23.160;2023-01-05T08:07:30;94601.00;;;9.64;100.00
11049;BME280;5577;42.706;23.160;2023-01-05T08:10:14;94607.31;;;9.39;100.00
11049;BME280;5577;42.706;23.160;2023-01-05T08:13:13;94617.81;;;9.48;100.00
11049;BME280;5577;42.706;23.160;2023-01-05T08:16:16;94616.59;;;9.45;100.00
11049;BME280;5577;42.706;23.160;2023-01-05T08:19:00;94589.09;;;9.14;100.00
11049;BME280;5577;42.706;23.160;2023-01-05T08:21:44;94607.22;;;9.36;100.00
11049;BME280;5577;42.706;23.160;2023-01-05T08:24:28;94616.50;;;9.54;100.00
11049;BME280;5577;42.706;23.160;2023-01-05T08:27:12;94613.50;;;9.43;100.00
11049;BME280;5577;42.706;23.160;2023-01-05T08:29:56;94620.19;;;9.73;100.00
11049;BME280;5577;42.706;23.160;2023-01-05T08:32:40;94611.78;;;9.59;100.00
11049;BME280;5577;42.706;23.160;2023-01-05T08:35:24;94608.66;;;10.02;100.00
11049;BME280;5577;42.706;23.160;2023-01-05T08:38:08;94614.59;;;10.59;100.00
11049;BME280;5577;42.706;23.160;2023-01-05T08:40:52;94503.44;;;10.47;100.00
11049;BME280;5577;42.706;23.160;2023-01-05T08:43:40;94620.69;;;12.28;100.00
11049;BME280;5577;42.706;23.160;2023-01-05T08:46:26;94617.47;;;12.88;99.52
11049;BME280;5577;42.706;23.160;2023-01-05T08:49:10;94603.25;;;13.53;87.21
11049;BME280;5577;42.706;23.160;2023-01-05T08:51:54;94612.91;;;14.52;77.55
11049;BME280;5577;42.706;23.160;2023-01-05T08:54:38;94611.59;;;14.42;70.22
11049;BME280;5577;42.706;23.160;2023-01-05T08:57:22;94597.44;;;14.87;67.11
11049;BME280;5577;42.706;23.160;2023-01-05T09:00:06;94597.38;;;14.83;65.93
11049;BME280;5577;42.706;23.160;2023-01-05T09:02:51;94581.59;;;14.71;66.10
11049;BME280;5577;42.706;23.160;2023-01-05T09:05:35;94574.38;;;14.72;63.42
11049;BME280;5577;42.706;23.160;2023-01-05T09:08:19;94579.69;;;14.72;63.39
11049;BME280;5577;42.706;23.160;2023-01-05T09:13:58;94552.88;;;14.31;64.44
11049;BME280;5577;42.706;23.160;2023-01-05T09:16:43;94518.44;;;15.38;61.79
11049;BME280;5577;42.706;23.160;2023-01-05T09:19:27;94534.34;;;16.61;59.02
11049;BME280;5577;42.706;23.160;2023-01-05T09:22:11;94516.03;;;17.74;54.60
11049;BME280;5577;42.706;23.160;2023-01-05T09:24:55;94515.91;;;17.25;52.13
11049;BME280;5577;42.706;23.160;2023-01-05T09:27:39;94517.38;;;16.36;54.37
11049;BME280;5577;42.706;23.160;2023-01-05T09:30:24;94501.41;;;15.49;57.00
11049;BME280;5577;42.706;23.160;2023-01-05T09:33:08;94505.31;;;16.60;54.94
11049;BME280;5577;42.706;23.160;2023-01-05T09:35:53;94504.53;;;16.59;54.80
11049;BME280;5577;42.706;23.160;2023-01-05T09:38:38;94476.25;;;16.48;53.45
11049;BME280;5577;42.706;23.160;2023-01-05T09:41:55;94485.44;;;16.61;54.48
11049;BME280;5577;42.706;23.160;2023-01-05T09:44:41;94454.22;;;16.07;53.99
11049;BME280;5577;42.706;23.160;2023-01-05T09:47:39;94457.84;;;15.82;55.81
11049;BME280;5577;42.706;23.160;2023-01-05T09:50:26;94457.16;;;16.49;53.14
11049;BME280;5577;42.706;23.160;2023-01-05T09:53:15;94451.13;;;16.05;54.22
11049;BME280;5577;42.706;23.160;2023-01-05T09:56:00;94416.81;;;16.07;54.41
11049;BME280;5577;42.706;23.160;2023-01-05T09:58:45;94436.44;;;15.78;54.31
11049;BME280;5577;42.706;23.160;2023-01-05T10:01:32;94438.00;;;14.99;58.33
11049;BME280;5577;42.706;23.160;2023-01-05T10:04:22;94441.19;;;16.02;55.68
11049;BME280;5577;42.706;23.160;2023-01-05T10:07:17;94435.19;;;15.22;57.06
11049;BME280;5577;42.706;23.160;2023-01-05T10:10:11;94443.06;;;15.48;55.81
11049;BME280;5577;42.706;23.160;2023-01-05T10:12:59;94442.28;;;15.94;55.69
11049;BME280;5577;42.706;23.160;2023-01-05T10:15:53;94446.66;;;16.20;54.88
11049;BME280;5577;42.706;23.160;2023-01-05T10:18:37;94436.69;;;15.59;54.74
11049;BME280;5577;42.706;23.160;2023-01-05T10:30:57;94426.56;;;13.54;67.36
11049;BME280;5577;42.706;23.160;2023-01-05T10:34:11;94421.88;;;13.70;67.15
11049;BME280;5577;42.706;23.160;2023-01-05T10:45:54;94392.34;;;18.35;48.91
11049;BME280;5577;42.706;23.160;2023-01-05T10:48:39;94397.50;;;19.52;44.24
11049;BME280;5577;42.706;23.160;2023-01-05T10:51:23;94381.88;;;20.96;41.37
11049;BME280;5577;42.706;23.160;2023-01-05T10:54:19;94389.69;;;22.12;38.65
11049;BME280;5577;42.706;23.160;2023-01-05T11:00:20;94376.97;;;20.57;39.43
11049;BME280;5577;42.706;23.160;2023-01-05T11:03:04;94369.31;;;19.78;41.14
11049;BME280;5577;42.706;23.160;2023-01-05T11:05:52;94360.56;;;19.67;41.61
11049;BME280;5577;42.706;23.160;2023-01-05T11:08:36;94367.31;;;19.86;41.04
11049;BME280;5577;42.706;23.160;2023-01-05T11:11:25;94366.56;;;20.89;39.70
11049;BME280;5577;42.706;23.160;2023-01-05T11:14:15;94365.56;;;19.65;41.36
11049;BME280;5577;42.706;23.160;2023-01-05T11:17:02;94365.19;;;20.44;40.60
11049;BME280;5577;42.706;23.160;2023-01-05T11:19:50;94323.63;;;17.55;44.33
11049;BME280;5577;42.706;23.160;2023-01-05T11:22:37;94356.38;;;18.25;44.51
11049;BME280;5577;42.706;23.160;2023-01-05T11:25:27;94358.50;;;19.37;42.83
11049;BME280;5577;42.706;23.160;2023-01-05T11:28:14;94352.41;;;19.33;43.22
11049;BME280;5577;42.706;23.160;2023-01-05T11:31:01;94349.56;;;18.96;43.08
11049;BME280;5577;42.706;23.160;2023-01-05T11:33:54;94344.47;;;18.44;43.65
11049;BME280;5577;42.706;23.160;2023-01-05T11:36:39;94333.88;;;17.98;43.95
11049;BME280;5577;42.706;23.160;2023-01-05T11:46:11;94335.75;;;16.61;48.09
11049;BME280;5577;42.706;23.160;2023-01-05T11:48:33;94337.66;;;16.50;47.66
11049;BME280;5577;42.706;23.160;2023-01-05T11:51:32;94333.06;;;15.75;49.31
11049;BME280;5577;42.706;23.160;2023-01-05T11:57:15;94326.72;;;14.89;52.18
11049;BME280;5577;42.706;23.160;2023-01-05T11:59:59;94328.53;;;14.42;54.26
11049;BME280;5577;42.706;23.160;2023-01-05T12:03:01;94321.81;;;14.55;53.34
11049;BME280;5577;42.706;23.160;2023-01-05T12:05:55;94339.78;;;14.65;53.08
11049;BME280;5577;42.706;23.160;2023-01-05T12:09:31;94331.47;;;14.70;53.49
11049;BME280;5577;42.706;23.160;2023-01-05T12:21:24;94268.38;;;14.81;53.93
11049;BME280;5577;42.706;23.160;2023-01-05T12:33:44;94261.38;;;13.92;56.46
11049;BME280;5577;42.706;23.160;2023-01-05T12:36:27;94262.09;;;13.30;58.75
11049;BME280;5577;42.706;23.160;2023-01-05T12:42:50;94260.97;;;13.61;60.53
11049;BME280;5577;42.706;23.160;2023-01-05T12:48:41;94266.69;;;14.62;56.51
11049;BME280;5577;42.706;23.160;2023-01-05T12:51:54;94283.22;;;14.82;55.31
11049;BME280;5577;42.706;23.160;2023-01-05T12:58:31;94273.53;;;14.60;56.28
11049;BME280;5577;42.706;23.160;2023-01-05T13:01:21;94277.44;;;15.20;53.67
11049;BME280;5577;42.706;23.160;2023-01-05T13:04:18;94282.56;;;15.39;53.13
11049;BME280;5577;42.706;23.160;2023-01-05T13:07:10;94286.81;;;15.47;52.41
11049;BME280;5577;42.706;23.160;2023-01-05T13:10:02;94276.44;;;14.91;53.47
11049;BME280;5577;42.706;23.160;2023-01-05T13:12:54;94287.50;;;14.50;54.96
11049;BME280;5577;42.706;23.160;2023-01-05T13:15:45;94284.59;;;14.62;54.81
11049;BME280;5577;42.706;23.160;2023-01-05T13:18:38;94285.00;;;15.14;53.25
11049;BME280;5577;42.706;23.160;2023-01-05T13:21:23;94289.25;;;15.22;53.09
11049;BME280;5577;42.706;23.160;2023-01-05T13:24:20;94286.00;;;15.43;53.33
11049;BME280;5577;42.706;23.160;2023-01-05T13:27:11;94284.63;;;15.70;52.52
11049;BME280;5577;42.706;23.160;2023-01-05T13:29:57;94283.44;;;15.57;52.80
11049;BME280;5577;42.706;23.160;2023-01-05T13:38:53;94255.16;;;14.48;56.13
11049;BME280;5577;42.706;23.160;2023-01-05T13:42:01;94256.81;;;14.63;56.04
11049;BME280;5577;42.706;23.160;2023-01-05T13:54:16;94240.84;;;13.04;65.00
11049;BME280;5577;42.706;23.160;2023-01-05T13:57:06;94213.94;;;12.83;66.73
11049;BME280;5577;42.706;23.160;2023-01-05T14:00:05;94229.41;;;12.78;67.54
11049;BME280;5577;42.706;23.160;2023-01-05T14:03:19;94222.75;;;12.65;68.87
11049;BME280;5577;42.706;23.160;2023-01-05T14:06:13;94230.41;;;12.70;69.47
11049;BME280;5577;42.706;23.160;2023-01-05T14:09:20;94235.94;;;12.84;68.88
11049;BME280;5577;42.706;23.160;2023-01-05T14:26:08;94176.44;;;11.95;74.20
11049;BME280;5577;42.706;23.160;2023-01-05T14:28:52;94235.19;;;12.16;75.49
11049;BME280;5577;42.706;23.160;2023-01-05T14:31:38;94236.09;;;12.04;77.40
11049;BME280;5577;42.706;23.160;2023-01-05T14:34:26;94233.84;;;11.84;80.48
11049;BME280;5577;42.706;23.160;2023-01-05T14:37:21;94244.44;;;11.84;81.32
11049;BME280;5577;42.706;23.160;2023-01-05T14:40:23;94249.19;;;11.75;82.59
11049;BME280;5577;42.706;23.160;2023-01-05T14:43:27;94235.88;;;11.71;81.63
11049;BME280;5577;42.706;23.160;2023-01-05T14:46:13;94244.09;;;11.66;82.74
11049;BME280;5577;42.706;23.160;2023-01-05T14:49:06;94251.22;;;11.62;84.91
11049;BME280;5577;42.706;23.160;2023-01-05T14:51:57;94246.66;;;11.43;88.26
11049;BME280;5577;42.706;23.160;2023-01-05T15:06:12;94259.88;;;11.24;92.13
11049;BME280;5577;42.706;23.160;2023-01-05T15:21:54;94263.88;;;10.53;100.00
11049;BME280;5577;42.706;23.160;2023-01-05T15:33:53;94267.94;;;10.19;100.00
11049;BME280;5577;42.706;23.160;2023-01-05T15:37:02;94271.00;;;10.06;100.00
11049;BME280;5577;42.706;23.160;2023-01-05T15:42:39;94257.28;;;9.88;100.00
11049;BME280;5577;42.706;23.160;2023-01-05T15:45:33;94248.97;;;9.74;100.00
11049;BME280;5577;42.706;23.160;2023-01-05T15:48:33;94256.81;;;9.71;100.00
11049;BME280;5577;42.706;23.160;2023-01-05T15:51:27;94244.91;;;9.92;100.00
11049;BME280;5577;42.706;23.160;2023-01-05T15:54:19;94192.75;;;9.62;100.00
11049;BME280;5577;42.706;23.160;2023-01-05T15:57:18;94242.19;;;9.89;100.00
11049;BME280;5577;42.706;23.160;2023-01-05T16:03:00;94233.47;;;9.88;100.00
11049;BME280;5577;42.706;23.160;2023-01-05T16:05:44;94233.13;;;9.90;100.00
11049;BME280;5577;42.706;23.160;2023-01-05T16:08:30;94232.53;;;10.08;100.00
11049;BME280;5577;42.706;23.160;2023-01-05T16:11:38;94230.31;;;10.10;100.00
11049;BME280;5577;42.706;23.160;2023-01-05T16:17:18;94244.75;;;10.01;100.00
11049;BME280;5577;42.706;23.160;2023-01-05T16:20:17;94246.47;;;9.93;100.00
11049;BME280;5577;42.706;23.160;2023-01-05T16:23:16;94256.88;;;9.74;100.00
11049;BME280;5577;42.706;23.160;2023-01-05T16:26:02;94260.13;;;9.68;100.00
11049;BME280;5577;42.706;23.160;2023-01-05T16:28:46;94253.25;;;9.51;100.00
11049;BME280;5577;42.706;23.160;2023-01-05T16:31:34;94273.06;;;9.45;100.00
11049;BME280;5577;42.706;23.160;2023-01-05T16:34:20;94272.56;;;9.28;100.00
11049;BME280;5577;42.706;23.160;2023-01-05T16:37:17;94267.19;;;9.24;100.00
11049;BME280;5577;42.706;23.160;2023-01-05T16:40:02;94275.47;;;9.11;100.00
11049;BME280;5577;42.706;23.160;2023-01-05T16:42:48;94276.56;;;8.98;100.00
11049;BME280;5577;42.706;23.160;2023-01-05T16:45:33;94260.19;;;8.68;100.00
11049;BME280;5577;42.706;23.160;2023-01-05T16:51:35;94279.31;;;8.53;100.00
11049;BME280;5577;42.706;23.160;2023-01-05T16:54:22;94282.84;;;8.45;100.00
11049;BME280;5577;42.706;23.160;2023-01-05T16:57:29;94283.03;;;8.40;100.00
11049;BME280;5577;42.706;23.160;2023-01-05T17:03:29;94291.59;;;8.25;100.00
11049;BME280;5577;42.706;23.160;2023-01-05T17:06:25;94288.88;;;8.13;100.00
11049;BME280;5577;42.706;23.160;2023-01-05T17:09:22;94270.56;;;8.16;100.00
11049;BME280;5577;42.706;23.160;2023-01-05T17:12:09;94282.47;;;8.22;100.00
11049;BME280;5577;42.706;23.160;2023-01-05T17:14:59;94298.06;;;8.27;100.00
11049;BME280;5577;42.706;23.160;2023-01-05T17:17:43;94297.75;;;8.29;100.00
11049;BME280;5577;42.706;23.160;2023-01-05T17:20:32;94286.97;;;8.34;100.00
11049;BME280;5577;42.706;23.160;2023-01-05T17:23:29;94286.69;;;8.47;100.00
11049;BME280;5577;42.706;23.160;2023-01-05T17:26:24;94277.88;;;8.67;100.00
11049;BME280;5577;42.706;23.160;2023-01-05T17:29:17;94287.25;;;8.77;100.00
11049;BME280;5577;42.706;23.160;2023-01-05T17:32:02;94281.66;;;8.78;100.00
11049;BME280;5577;42.706;23.160;2023-01-05T17:34:47;94280.09;;;8.77;100.00
11049;BME280;5577;42.706;23.160;2023-01-05T17:37:31;94279.44;;;8.68;100.00
11049;BME280;5577;42.706;23.160;2023-01-05T17:40:18;94290.75;;;8.69;100.00
11049;BME280;5577;42.706;23.160;2023-01-05T17:43:02;94290.19;;;8.63;100.00
11049;BME280;5577;42.706;23.160;2023-01-05T17:45:47;94296.03;;;8.57;100.00
11049;BME280;5577;42.706;23.160;2023-01-05T17:48:30;94245.63;;;8.14;100.00